sensor_id;sensor_type;location;lat;lon;timestamp;pressure;altitude;pressure_sealevel;temperature;humidity
64211;BME280;50528;48.514;14.394;2022-09-09T00:03:27;93778.39;;;10.36;79.05
64211;BME280;50528;48.514;14.394;2022-09-09T00:04:35;93779.16;;;10.35;79.13
64211;BME280;50528;48.514;14.394;2022-09-09T00:05:52;93777.36;;;10.34;79.10
64211;BME280;50528;48.514;14.394;2022-09-09T00:08:25;93773.08;;;10.31;79.17
64211;BME280;50528;48.514;14.394;2022-09-09T00:09:39;93772.60;;;10.31;79.13
64211;BME280;50528;48.514;14.394;2022-09-09T00:10:46;93771.23;;;10.31;79.11
64211;BME280;50528;48.514;14.394;2022-09-09T00:12:02;93769.54;;;10.30;79.18
64211;BME280;50528;48.514;14.394;2022-09-09T00:14:16;93760.62;;;10.22;79.16
64211;BME280;50528;48.514;14.394;2022-09-09T00:15:40;93766.52;;;10.29;79.02
64211;BME280;50528;48.514;14.394;2022-09-09T00:16:47;93765.52;;;10.28;79.44
64211;BME280;50528;48.514;14.394;2022-09-09T00:17:54;93765.37;;;10.28;79.26
64211;BME280;50528;48.514;14.394;2022-09-09T00:19:05;93766.68;;;10.29;79.72
64211;BME280;50528;48.514;14.394;2022-09-09T00:20:13;93762.66;;;10.30;79.39
64211;BME280;50528;48.514;14.394;2022-09-09T00:21:18;93765.72;;;10.32;79.42
64211;BME280;50528;48.514;14.394;2022-09-09T00:22:28;93762.20;;;10.32;79.58
64211;BME280;50528;48.514;14.394;2022-09-09T00:23:34;93762.63;;;10.31;79.22
64211;BME280;50528;48.514;14.394;2022-09-09T00:26:47;93766.25;;;10.28;78.93
64211;BME280;50528;48.514;14.394;2022-09-09T00:27:51;93768.96;;;10.26;78.78
64211;BME280;50528;48.514;14.394;2022-09-09T00:29:02;93765.06;;;10.23;78.84
64211;BME280;50528;48.514;14.394;2022-09-09T00:30:17;93764.89;;;10.22;78.88
64211;BME280;50528;48.514;14.394;2022-09-09T00:31:27;93765.12;;;10.21;78.87
64211;BME280;50528;48.514;14.394;2022-09-09T00:32:33;93761.11;;;10.17;78.63
64211;BME280;50528;48.514;14.394;2022-09-09T00:33:38;93760.25;;;10.15;78.52
64211;BME280;50528;48.514;14.394;2022-09-09T00:34:46;93755.92;;;10.12;78.43
64211;BME280;50528;48.514;14.394;2022-09-09T00:35:51;93757.56;;;10.10;78.47
64211;BME280;50528;48.514;14.394;2022-09-09T00:36:55;93759.80;;;10.07;78.56
64211;BME280;50528;48.514;14.394;2022-09-09T00:38:04;93758.16;;;10.05;78.58
64211;BME280;50528;48.514;14.394;2022-09-09T00:39:19;93758.34;;;10.04;78.86
64211;BME280;50528;48.514;14.394;2022-09-09T00:40:29;93758.90;;;10.03;78.62
64211;BME280;50528;48.514;14.394;2022-09-09T00:42:41;93759.89;;;10.01;78.87
64211;BME280;50528;48.514;14.394;2022-09-09T00:43:46;93760.40;;;10.00;78.66
64211;BME280;50528;48.514;14.394;2022-09-09T00:45:02;93760.04;;;10.00;78.90
64211;BME280;50528;48.514;14.394;2022-09-09T00:51:15;93758.89;;;10.03;78.88
64211;BME280;50528;48.514;14.394;2022-09-09T00:52:55;93760.90;;;10.03;78.93
64211;BME280;50528;48.514;14.394;2022-09-09T00:54:03;93760.08;;;10.04;79.03
64211;BME280;50528;48.514;14.394;2022-09-09T00:56:18;93762.05;;;10.06;79.21
64211;BME280;50528;48.514;14.394;2022-09-09T00:57:34;93755.94;;;10.05;79.31
64211;BME280;50528;48.514;14.394;2022-09-09T00:58:37;93759.27;;;10.07;79.61
64211;BME280;50528;48.514;14.394;2022-09-09T01:00:16;93762.53;;;10.08;79.33
64211;BME280;50528;48.514;14.394;2022-09-09T01:01:10;93754.66;;;10.09;79.37
64211;BME280;50528;48.514;14.394;2022-09-09T01:02:36;93752.27;;;10.10;79.29
64211;BME280;50528;48.514;14.394;2022-09-09T01:03:51;93751.60;;;10.11;79.14
64211;BME280;50528;48.514;14.394;2022-09-09T01:05:05;93753.13;;;10.11;79.01
64211;BME280;50528;48.514;14.394;2022-09-09T01:06:15;93755.20;;;10.13;79.35
64211;BME280;50528;48.514;14.394;2022-09-09T01:07:18;93753.09;;;10.14;79.55
64211;BME280;50528;48.514;14.394;2022-09-09T01:09:41;93760.33;;;10.18;79.33
64211;BME280;50528;48.514;14.394;2022-09-09T01:10:49;93761.59;;;10.19;79.33
64211;BME280;50528;48.514;14.394;2022-09-09T01:13:12;93769.53;;;10.19;79.33
64211;BME280;50528;48.514;14.394;2022-09-09T01:15:24;93770.83;;;10.20;79.28
64211;BME280;50528;48.514;14.394;2022-09-09T01:16:28;93767.90;;;10.20;79.10
64211;BME280;50528;48.514;14.394;2022-09-09T01:18:44;93769.83;;;10.18;79.11
64211;BME280;50528;48.514;14.394;2022-09-09T01:22:10;93765.64;;;10.14;79.02
64211;BME280;50528;48.514;14.394;2022-09-09T01:24:40;93760.02;;;10.12;79.11
64211;BME280;50528;48.514;14.394;2022-09-09T01:26:04;93757.84;;;10.11;79.02
64211;BME280;50528;48.514;14.394;2022-09-09T01:27:11;93763.48;;;10.11;79.10
64211;BME280;50528;48.514;14.394;2022-09-09T01:28:16;93766.73;;;10.11;79.12
64211;BME280;50528;48.514;14.394;2022-09-09T01:29:21;93761.35;;;10.10;78.97
64211;BME280;50528;48.514;14.394;2022-09-09T01:30:26;93761.08;;;10.09;79.00
64211;BME280;50528;48.514;14.394;2022-09-09T01:31:38;93761.20;;;10.10;79.20
64211;BME280;50528;48.514;14.394;2022-09-09T01:32:45;93763.56;;;10.10;79.88
64211;BME280;50528;48.514;14.394;2022-09-09T01:33:48;93766.53;;;10.12;79.84
64211;BME280;50528;48.514;14.394;2022-09-09T01:34:51;93766.64;;;10.12;79.60
64211;BME280;50528;48.514;14.394;2022-09-09T01:37:08;93759.23;;;10.13;79.57
64211;BME280;50528;48.514;14.394;2022-09-09T01:38:12;93766.69;;;10.13;79.48
64211;BME280;50528;48.514;14.394;2022-09-09T01:39:16;93766.95;;;10.12;79.30
64211;BME280;50528;48.514;14.394;2022-09-09T01:40:19;93770.46;;;10.13;79.33
64211;BME280;50528;48.514;14.394;2022-09-09T01:41:22;93765.45;;;10.09;79.51
64211;BME280;50528;48.514;14.394;2022-09-09T01:42:25;93771.26;;;10.12;79.24
64211;BME280;50528;48.514;14.394;2022-09-09T01:43:28;93772.63;;;10.12;78.94
64211;BME280;50528;48.514;14.394;2022-09-09T01:44:31;93772.34;;;10.10;79.00
64211;BME280;50528;48.514;14.394;2022-09-09T01:45:35;93770.10;;;10.08;78.92
64211;BME280;50528;48.514;14.394;2022-09-09T01:46:38;93773.14;;;10.08;79.05
64211;BME280;50528;48.514;14.394;2022-09-09T01:47:41;93772.19;;;10.06;79.24
64211;BME280;50528;48.514;14.394;2022-09-09T01:48:44;93769.31;;;10.04;79.30
64211;BME280;50528;48.514;14.394;2022-09-09T01:49:48;93767.31;;;10.04;79.35
64211;BME280;50528;48.514;14.394;2022-09-09T01:50:50;93764.89;;;10.03;79.08
64211;BME280;50528;48.514;14.394;2022-09-09T01:51:54;93764.92;;;10.02;79.01
64211;BME280;50528;48.514;14.394;2022-09-09T01:52:58;93763.14;;;10.00;79.16
64211;BME280;50528;48.514;14.394;2022-09-09T01:54:01;93766.06;;;10.00;79.26
64211;BME280;50528;48.514;14.394;2022-09-09T01:55:05;93763.27;;;9.98;78.94
64211;BME280;50528;48.514;14.394;2022-09-09T01:57:56;93762.92;;;9.95;79.07
64211;BME280;50528;48.514;14.394;2022-09-09T02:00:06;93761.69;;;9.93;78.88
64211;BME280;50528;48.514;14.394;2022-09-09T02:02:30;93761.77;;;9.92;78.99
64211;BME280;50528;48.514;14.394;2022-09-09T02:03:34;93761.39;;;9.92;78.99
64211;BME280;50528;48.514;14.394;2022-09-09T02:04:39;93762.39;;;9.92;78.96
64211;BME280;50528;48.514;14.394;2022-09-09T02:05:49;93759.31;;;9.90;78.75
64211;BME280;50528;48.514;14.394;2022-09-09T02:06:56;93761.54;;;9.86;78.80
64211;BME280;50528;48.514;14.394;2022-09-09T02:08:10;93761.87;;;9.83;78.64
64211;BME280;50528;48.514;14.394;2022-09-09T02:09:14;93763.29;;;9.80;78.67
64211;BME280;50528;48.514;14.394;2022-09-09T02:10:21;93763.02;;;9.77;78.92
64211;BME280;50528;48.514;14.394;2022-09-09T02:11:29;93764.66;;;9.76;78.77
64211;BME280;50528;48.514;14.394;2022-09-09T02:12:32;93762.98;;;9.75;78.77
64211;BME280;50528;48.514;14.394;2022-09-09T02:13:36;93763.69;;;9.74;78.96
64211;BME280;50528;48.514;14.394;2022-09-09T02:14:41;93770.61;;;9.73;78.83
64211;BME280;50528;48.514;14.394;2022-09-09T02:16:59;93767.24;;;9.73;78.94
64211;BME280;50528;48.514;14.394;2022-09-09T02:18:06;93769.40;;;9.72;79.13
64211;BME280;50528;48.514;14.394;2022-09-09T02:20:19;93770.73;;;9.71;79.16
64211;BME280;50528;48.514;14.394;2022-09-09T02:21:22;93768.01;;;9.74;79.13
64211;BME280;50528;48.514;14.394;2022-09-09T02:22:26;93769.87;;;9.76;79.08
64211;BME280;50528;48.514;14.394;2022-09-09T02:23:30;93771.20;;;9.77;79.20
64211;BME280;50528;48.514;14.394;2022-09-09T02:24:36;93767.95;;;9.78;79.12
64211;BME280;50528;48.514;14.394;2022-09-09T02:25:40;93770.33;;;9.79;79.23
64211;BME280;50528;48.514;14.394;2022-09-09T02:26:44;93771.38;;;9.79;79.34
64211;BME280;50528;48.514;14.394;2022-09-09T02:27:49;93772.55;;;9.81;79.30
64211;BME280;50528;48.514;14.394;2022-09-09T02:28:57;93776.50;;;9.81;79.38
64211;BME280;50528;48.514;14.394;2022-09-09T02:30:02;93773.20;;;9.82;79.43
64211;BME280;50528;48.514;14.394;2022-09-09T02:31:06;93774.99;;;9.83;79.41
64211;BME280;50528;48.514;14.394;2022-09-09T02:32:11;93771.90;;;9.83;79.53
64211;BME280;50528;48.514;14.394;2022-09-09T02:33:15;93769.74;;;9.84;79.38
64211;BME280;50528;48.514;14.394;2022-09-09T02:34:20;93767.33;;;9.84;79.42
64211;BME280;50528;48.514;14.394;2022-09-09T02:35:24;93765.39;;;9.84;79.65
64211;BME280;50528;48.514;14.394;2022-09-09T02:36:30;93763.23;;;9.84;79.71
64211;BME280;50528;48.514;14.394;2022-09-09T02:37:38;93760.36;;;9.85;79.88
64211;BME280;50528;48.514;14.394;2022-09-09T02:38:43;93760.58;;;9.86;80.21
64211;BME280;50528;48.514;14.394;2022-09-09T02:39:48;93761.48;;;9.86;80.31
64211;BME280;50528;48.514;14.394;2022-09-09T02:40:51;93759.25;;;9.88;80.05
64211;BME280;50528;48.514;14.394;2022-09-09T02:41:54;93755.89;;;9.88;79.96
64211;BME280;50528;48.514;14.394;2022-09-09T02:42:57;93755.00;;;9.88;79.70
64211;BME280;50528;48.514;14.394;2022-09-09T02:44:00;93754.05;;;9.87;79.69
64211;BME280;50528;48.514;14.394;2022-09-09T02:45:03;93751.88;;;9.86;79.65
64211;BME280;50528;48.514;14.394;2022-09-09T02:48:24;93759.51;;;9.83;79.28
64211;BME280;50528;48.514;14.394;2022-09-09T02:49:40;93762.01;;;9.81;79.37
64211;BME280;50528;48.514;14.394;2022-09-09T02:51:02;93756.67;;;9.79;79.18
64211;BME280;50528;48.514;14.394;2022-09-09T02:52:12;93754.14;;;9.78;79.45
64211;BME280;50528;48.514;14.394;2022-09-09T02:53:20;93755.29;;;9.77;79.57
64211;BME280;50528;48.514;14.394;2022-09-09T02:54:29;93756.34;;;9.76;79.41
64211;BME280;50528;48.514;14.394;2022-09-09T02:57:25;93752.64;;;9.73;79.21
64211;BME280;50528;48.514;14.394;2022-09-09T02:58:30;93740.55;;;9.62;79.13
64211;BME280;50528;48.514;14.394;2022-09-09T02:59:33;93754.48;;;9.71;79.11
64211;BME280;50528;48.514;14.394;2022-09-09T03:00:37;93750.41;;;9.69;78.66
64211;BME280;50528;48.514;14.394;2022-09-09T03:01:42;93751.89;;;9.66;78.68
64211;BME280;50528;48.514;14.394;2022-09-09T03:02:44;93747.81;;;9.61;78.60
64211;BME280;50528;48.514;14.394;2022-09-09T03:03:49;93748.24;;;9.57;78.50
64211;BME280;50528;48.514;14.394;2022-09-09T03:04:52;93747.67;;;9.54;78.43
64211;BME280;50528;48.514;14.394;2022-09-09T03:05:55;93748.63;;;9.50;78.41
64211;BME280;50528;48.514;14.394;2022-09-09T03:06:59;93750.85;;;9.47;78.59
64211;BME280;50528;48.514;14.394;2022-09-09T03:08:03;93753.02;;;9.45;78.63
64211;BME280;50528;48.514;14.394;2022-09-09T03:09:07;93755.88;;;9.43;78.56
64211;BME280;50528;48.514;14.394;2022-09-09T03:10:13;93751.98;;;9.41;78.53
64211;BME280;50528;48.514;14.394;2022-09-09T03:11:16;93753.45;;;9.38;78.69
64211;BME280;50528;48.514;14.394;2022-09-09T03:12:19;93751.31;;;9.35;79.04
64211;BME280;50528;48.514;14.394;2022-09-09T03:13:23;93756.23;;;9.34;78.96
64211;BME280;50528;48.514;14.394;2022-09-09T03:14:28;93756.98;;;9.32;78.97
64211;BME280;50528;48.514;14.394;2022-09-09T03:15:32;93755.56;;;9.31;78.98
64211;BME280;50528;48.514;14.394;2022-09-09T03:16:35;93758.59;;;9.30;79.04
64211;BME280;50528;48.514;14.394;2022-09-09T03:17:40;93760.25;;;9.29;78.98
64211;BME280;50528;48.514;14.394;2022-09-09T03:18:43;93755.67;;;9.28;79.12
64211;BME280;50528;48.514;14.394;2022-09-09T03:19:48;93759.35;;;9.29;79.29
64211;BME280;50528;48.514;14.394;2022-09-09T03:20:52;93758.35;;;9.28;79.28
64211;BME280;50528;48.514;14.394;2022-09-09T03:21:57;93758.23;;;9.28;79.51
64211;BME280;50528;48.514;14.394;2022-09-09T03:23:00;93760.40;;;9.29;79.21
64211;BME280;50528;48.514;14.394;2022-09-09T03:24:03;93758.35;;;9.28;79.42
64211;BME280;50528;48.514;14.394;2022-09-09T03:25:06;93760.96;;;9.28;79.28
64211;BME280;50528;48.514;14.394;2022-09-09T03:26:09;93765.58;;;9.28;79.68
64211;BME280;50528;48.514;14.394;2022-09-09T03:27:12;93767.48;;;9.29;79.41
64211;BME280;50528;48.514;14.394;2022-09-09T03:28:16;93766.34;;;9.30;79.55
64211;BME280;50528;48.514;14.394;2022-09-09T03:29:19;93768.71;;;9.30;79.58
64211;BME280;50528;48.514;14.394;2022-09-09T03:30:23;93769.92;;;9.30;79.62
64211;BME280;50528;48.514;14.394;2022-09-09T03:31:27;93766.64;;;9.29;79.61
64211;BME280;50528;48.514;14.394;2022-09-09T03:32:32;93765.10;;;9.30;79.51
64211;BME280;50528;48.514;14.394;2022-09-09T03:33:36;93765.14;;;9.29;79.32
64211;BME280;50528;48.514;14.394;2022-09-09T03:34:39;93763.34;;;9.29;79.84
64211;BME280;50528;48.514;14.394;2022-09-09T03:35:46;93754.10;;;9.21;79.49
64211;BME280;50528;48.514;14.394;2022-09-09T03:36:54;93765.64;;;9.29;79.56
64211;BME280;50528;48.514;14.394;2022-09-09T03:37:56;93763.65;;;9.28;79.53
64211;BME280;50528;48.514;14.394;2022-09-09T03:38:59;93766.84;;;9.28;79.48
64211;BME280;50528;48.514;14.394;2022-09-09T03:40:02;93764.41;;;9.28;79.70
64211;BME280;50528;48.514;14.394;2022-09-09T03:41:06;93765.48;;;9.29;79.69
64211;BME280;50528;48.514;14.394;2022-09-09T03:42:13;93762.40;;;9.29;79.87
64211;BME280;50528;48.514;14.394;2022-09-09T03:43:23;93760.11;;;9.30;80.18
64211;BME280;50528;48.514;14.394;2022-09-09T03:44:26;93759.08;;;9.33;79.98
64211;BME280;50528;48.514;14.394;2022-09-09T03:45:29;93758.71;;;9.35;80.35
64211;BME280;50528;48.514;14.394;2022-09-09T03:46:32;93755.20;;;9.36;80.28
64211;BME280;50528;48.514;14.394;2022-09-09T03:47:35;93751.13;;;9.37;80.28
64211;BME280;50528;48.514;14.394;2022-09-09T03:48:38;93751.70;;;9.40;80.21
64211;BME280;50528;48.514;14.394;2022-09-09T03:49:40;93753.15;;;9.43;80.41
64211;BME280;50528;48.514;14.394;2022-09-09T03:50:46;93754.39;;;9.45;80.36
64211;BME280;50528;48.514;14.394;2022-09-09T03:51:49;93754.27;;;9.48;80.34
64211;BME280;50528;48.514;14.394;2022-09-09T03:52:52;93755.49;;;9.50;80.57
64211;BME280;50528;48.514;14.394;2022-09-09T03:53:55;93752.13;;;9.52;80.58
64211;BME280;50528;48.514;14.394;2022-09-09T03:55:00;93753.94;;;9.54;80.44
64211;BME280;50528;48.514;14.394;2022-09-09T03:56:04;93751.08;;;9.57;80.40
64211;BME280;50528;48.514;14.394;2022-09-09T03:57:09;93745.08;;;9.59;80.48
64211;BME280;50528;48.514;14.394;2022-09-09T03:58:13;93742.99;;;9.61;80.34
64211;BME280;50528;48.514;14.394;2022-09-09T03:59:16;93746.81;;;9.64;80.35
64211;BME280;50528;48.514;14.394;2022-09-09T04:00:19;93746.70;;;9.67;80.82
64211;BME280;50528;48.514;14.394;2022-09-09T04:01:22;93748.09;;;9.69;81.07
64211;BME280;50528;48.514;14.394;2022-09-09T04:02:25;93752.16;;;9.71;81.25
64211;BME280;50528;48.514;14.394;2022-09-09T04:03:30;93743.60;;;9.70;80.83
64211;BME280;50528;48.514;14.394;2022-09-09T04:04:33;93748.71;;;9.71;80.85
64211;BME280;50528;48.514;14.394;2022-09-09T04:05:36;93746.78;;;9.73;80.66
64211;BME280;50528;48.514;14.394;2022-09-09T04:06:44;93746.92;;;9.76;80.39
64211;BME280;50528;48.514;14.394;2022-09-09T04:07:47;93750.83;;;9.78;80.58
64211;BME280;50528;48.514;14.394;2022-09-09T04:08:51;93753.23;;;9.80;80.40
64211;BME280;50528;48.514;14.394;2022-09-09T04:09:55;93751.67;;;9.81;80.33
64211;BME280;50528;48.514;14.394;2022-09-09T04:10:58;93754.16;;;9.83;80.23
64211;BME280;50528;48.514;14.394;2022-09-09T04:12:01;93753.73;;;9.83;80.03
64211;BME280;50528;48.514;14.394;2022-09-09T04:13:04;93758.10;;;9.85;80.03
64211;BME280;50528;48.514;14.394;2022-09-09T04:14:07;93759.36;;;9.85;79.95
64211;BME280;50528;48.514;14.394;2022-09-09T04:15:13;93756.67;;;9.85;80.25
64211;BME280;50528;48.514;14.394;2022-09-09T04:16:16;93759.95;;;9.85;80.33
64211;BME280;50528;48.514;14.394;2022-09-09T04:17:19;93753.59;;;9.84;80.53
64211;BME280;50528;48.514;14.394;2022-09-09T04:18:22;93757.42;;;9.88;80.62
64211;BME280;50528;48.514;14.394;2022-09-09T04:19:26;93754.85;;;9.90;80.67
64211;BME280;50528;48.514;14.394;2022-09-09T04:20:30;93750.09;;;9.90;80.77
64211;BME280;50528;48.514;14.394;2022-09-09T04:21:33;93751.61;;;9.94;80.86
64211;BME280;50528;48.514;14.394;2022-09-09T04:22:36;93752.31;;;9.96;80.34
64211;BME280;50528;48.514;14.394;2022-09-09T04:23:41;93753.13;;;9.93;80.20
64211;BME280;50528;48.514;14.394;2022-09-09T04:24:44;93756.60;;;9.91;80.52
64211;BME280;50528;48.514;14.394;2022-09-09T04:25:51;93752.75;;;9.90;80.39
64211;BME280;50528;48.514;14.394;2022-09-09T04:26:54;93756.58;;;9.90;80.49
64211;BME280;50528;48.514;14.394;2022-09-09T04:28:00;93756.60;;;9.91;80.44
64211;BME280;50528;48.514;14.394;2022-09-09T04:29:04;93755.77;;;9.92;80.39
64211;BME280;50528;48.514;14.394;2022-09-09T04:30:07;93757.20;;;9.93;80.20
64211;BME280;50528;48.514;14.394;2022-09-09T04:31:15;93757.02;;;9.94;80.22
64211;BME280;50528;48.514;14.394;2022-09-09T04:32:19;93758.87;;;9.95;80.11
64211;BME280;50528;48.514;14.394;2022-09-09T04:33:24;93754.51;;;9.95;80.29
64211;BME280;50528;48.514;14.394;2022-09-09T04:34:30;93755.92;;;9.98;80.36
64211;BME280;50528;48.514;14.394;2022-09-09T04:35:35;93756.56;;;10.00;80.30
64211;BME280;50528;48.514;14.394;2022-09-09T04:36:38;93758.52;;;10.01;80.39
64211;BME280;50528;48.514;14.394;2022-09-09T04:37:44;93760.03;;;10.01;80.21
64211;BME280;50528;48.514;14.394;2022-09-09T04:38:47;93761.34;;;10.04;80.27
64211;BME280;50528;48.514;14.394;2022-09-09T04:39:51;93755.79;;;10.05;79.98
64211;BME280;50528;48.514;14.394;2022-09-09T04:40:54;93753.64;;;10.07;79.95
64211;BME280;50528;48.514;14.394;2022-09-09T04:41:57;93749.44;;;10.07;80.34
64211;BME280;50528;48.514;14.394;2022-09-09T04:43:00;93752.18;;;10.08;80.41
64211;BME280;50528;48.514;14.394;2022-09-09T04:44:05;93748.73;;;10.09;80.92
64211;BME280;50528;48.514;14.394;2022-09-09T04:45:08;93750.80;;;10.10;81.06
64211;BME280;50528;48.514;14.394;2022-09-09T04:46:13;93746.84;;;10.12;81.09
64211;BME280;50528;48.514;14.394;2022-09-09T04:47:16;93750.98;;;10.13;80.74
64211;BME280;50528;48.514;14.394;2022-09-09T04:48:20;93748.06;;;10.14;80.49
64211;BME280;50528;48.514;14.394;2022-09-09T04:49:23;93749.66;;;10.16;80.65
64211;BME280;50528;48.514;14.394;2022-09-09T04:50:26;93751.90;;;10.17;80.70
64211;BME280;50528;48.514;14.394;2022-09-09T04:51:29;93754.44;;;10.19;80.65
64211;BME280;50528;48.514;14.394;2022-09-09T04:52:34;93754.42;;;10.22;80.70
64211;BME280;50528;48.514;14.394;2022-09-09T04:53:37;93753.93;;;10.24;80.60
64211;BME280;50528;48.514;14.394;2022-09-09T04:54:40;93754.36;;;10.25;80.48
64211;BME280;50528;48.514;14.394;2022-09-09T04:55:43;93753.23;;;10.27;80.68
64211;BME280;50528;48.514;14.394;2022-09-09T04:56:46;93755.24;;;10.29;80.74
64211;BME280;50528;48.514;14.394;2022-09-09T04:57:49;93755.63;;;10.32;80.88
64211;BME280;50528;48.514;14.394;2022-09-09T04:58:55;93755.15;;;10.35;80.92
64211;BME280;50528;48.514;14.394;2022-09-09T04:59:58;93755.95;;;10.37;80.80
64211;BME280;50528;48.514;14.394;2022-09-09T05:01:03;93750.02;;;10.38;80.92
64211;BME280;50528;48.514;14.394;2022-09-09T05:02:06;93754.06;;;10.43;81.13
64211;BME280;50528;48.514;14.394;2022-09-09T05:03:10;93752.57;;;10.45;81.15
64211;BME280;50528;48.514;14.394;2022-09-09T05:04:13;93752.38;;;10.47;80.90
64211;BME280;50528;48.514;14.394;2022-09-09T05:05:17;93749.35;;;10.50;80.97
64211;BME280;50528;48.514;14.394;2022-09-09T05:06:21;93748.02;;;10.53;80.88
64211;BME280;50528;48.514;14.394;2022-09-09T05:07:24;93749.57;;;10.56;81.10
64211;BME280;50528;48.514;14.394;2022-09-09T05:08:29;93748.77;;;10.59;80.91
64211;BME280;50528;48.514;14.394;2022-09-09T05:09:32;93755.00;;;10.62;81.04
64211;BME280;50528;48.514;14.394;2022-09-09T05:10:36;93756.40;;;10.66;80.99
64211;BME280;50528;48.514;14.394;2022-09-09T05:11:40;93759.16;;;10.69;80.94
64211;BME280;50528;48.514;14.394;2022-09-09T05:12:43;93759.19;;;10.73;81.33
64211;BME280;50528;48.514;14.394;2022-09-09T05:13:54;93761.08;;;10.77;81.20
64211;BME280;50528;48.514;14.394;2022-09-09T05:14:57;93758.83;;;10.80;81.16
64211;BME280;50528;48.514;14.394;2022-09-09T05:16:00;93763.13;;;10.83;81.41
64211;BME280;50528;48.514;14.394;2022-09-09T05:17:03;93759.74;;;10.87;81.57
64211;BME280;50528;48.514;14.394;2022-09-09T05:18:10;93758.77;;;10.91;81.60
64211;BME280;50528;48.514;14.394;2022-09-09T05:19:15;93754.45;;;10.95;81.40
64211;BME280;50528;48.514;14.394;2022-09-09T05:20:18;93752.48;;;10.99;81.72
64211;BME280;50528;48.514;14.394;2022-09-09T05:21:21;93751.46;;;11.03;81.57
64211;BME280;50528;48.514;14.394;2022-09-09T05:22:25;93750.33;;;11.08;81.56
64211;BME280;50528;48.514;14.394;2022-09-09T05:23:28;93748.27;;;11.12;81.88
64211;BME280;50528;48.514;14.394;2022-09-09T05:24:31;93749.73;;;11.17;81.96
64211;BME280;50528;48.514;14.394;2022-09-09T05:25:35;93750.11;;;11.21;82.37
64211;BME280;50528;48.514;14.394;2022-09-09T05:26:38;93749.79;;;11.25;82.09
64211;BME280;50528;48.514;14.394;2022-09-09T05:27:41;93748.50;;;11.29;81.80
64211;BME280;50528;48.514;14.394;2022-09-09T05:28:45;93754.52;;;11.32;81.75
64211;BME280;50528;48.514;14.394;2022-09-09T05:29:48;93748.82;;;11.36;81.91
64211;BME280;50528;48.514;14.394;2022-09-09T05:30:55;93753.95;;;11.40;82.06
64211;BME280;50528;48.514;14.394;2022-09-09T05:31:58;93753.11;;;11.44;81.79
64211;BME280;50528;48.514;14.394;2022-09-09T05:33:00;93756.15;;;11.48;81.64
64211;BME280;50528;48.514;14.394;2022-09-09T05:34:04;93756.58;;;11.50;81.29
64211;BME280;50528;48.514;14.394;2022-09-09T05:35:07;93759.45;;;11.53;81.89
64211;BME280;50528;48.514;14.394;2022-09-09T05:36:11;93762.95;;;11.59;82.08
64211;BME280;50528;48.514;14.394;2022-09-09T05:37:15;93762.38;;;11.62;82.01
64211;BME280;50528;48.514;14.394;2022-09-09T05:38:19;93759.19;;;11.63;81.87
64211;BME280;50528;48.514;14.394;2022-09-09T05:39:29;93762.42;;;11.66;81.58
64211;BME280;50528;48.514;14.394;2022-09-09T05:40:32;93765.00;;;11.68;81.81
64211;BME280;50528;48.514;14.394;2022-09-09T05:41:34;93763.97;;;11.70;81.37
64211;BME280;50528;48.514;14.394;2022-09-09T05:42:38;93769.40;;;11.72;81.34
64211;BME280;50528;48.514;14.394;2022-09-09T05:43:42;93769.50;;;11.75;81.25
64211;BME280;50528;48.514;14.394;2022-09-09T05:44:47;93770.09;;;11.77;81.23
64211;BME280;50528;48.514;14.394;2022-09-09T05:47:03;93769.69;;;11.80;81.16
64211;BME280;50528;48.514;14.394;2022-09-09T05:48:07;93771.70;;;11.82;81.63
64211;BME280;50528;48.514;14.394;2022-09-09T05:49:10;93768.80;;;11.83;81.95
64211;BME280;50528;48.514;14.394;2022-09-09T05:50:14;93770.23;;;11.85;81.86
64211;BME280;50528;48.514;14.394;2022-09-09T05:51:20;93766.77;;;11.87;82.24
64211;BME280;50528;48.514;14.394;2022-09-09T05:52:24;93770.05;;;11.91;81.69
64211;BME280;50528;48.514;14.394;2022-09-09T05:53:29;93770.08;;;11.94;81.86
64211;BME280;50528;48.514;14.394;2022-09-09T05:54:35;93767.77;;;11.97;81.99
64211;BME280;50528;48.514;14.394;2022-09-09T05:55:39;93770.15;;;12.02;81.66
64211;BME280;50528;48.514;14.394;2022-09-09T05:56:43;93769.55;;;12.05;82.03
64211;BME280;50528;48.514;14.394;2022-09-09T05:57:51;93769.23;;;12.09;81.86
64211;BME280;50528;48.514;14.394;2022-09-09T05:58:54;93763.89;;;12.13;81.92
64211;BME280;50528;48.514;14.394;2022-09-09T05:59:57;93757.48;;;12.16;82.16
64211;BME280;50528;48.514;14.394;2022-09-09T06:01:01;93756.00;;;12.20;81.73
64211;BME280;50528;48.514;14.394;2022-09-09T06:02:04;93750.48;;;12.25;82.21
64211;BME280;50528;48.514;14.394;2022-09-09T06:03:09;93749.98;;;12.29;82.18
64211;BME280;50528;48.514;14.394;2022-09-09T06:04:13;93752.14;;;12.33;81.56
64211;BME280;50528;48.514;14.394;2022-09-09T06:05:16;93742.81;;;12.31;81.12
64211;BME280;50528;48.514;14.394;2022-09-09T06:06:19;93750.52;;;12.40;81.23
64211;BME280;50528;48.514;14.394;2022-09-09T06:07:26;93751.70;;;12.43;81.10
64211;BME280;50528;48.514;14.394;2022-09-09T06:08:30;93752.83;;;12.47;81.48
64211;BME280;50528;48.514;14.394;2022-09-09T06:09:33;93751.71;;;12.50;81.51
64211;BME280;50528;48.514;14.394;2022-09-09T06:10:36;93752.95;;;12.53;82.05
64211;BME280;50528;48.514;14.394;2022-09-09T06:11:39;93752.27;;;12.57;81.92
64211;BME280;50528;48.514;14.394;2022-09-09T06:12:42;93754.02;;;12.61;81.94
64211;BME280;50528;48.514;14.394;2022-09-09T06:13:45;93750.06;;;12.65;83.03
64211;BME280;50528;48.514;14.394;2022-09-09T06:14:48;93747.91;;;12.72;82.77
64211;BME280;50528;48.514;14.394;2022-09-09T06:15:53;93745.18;;;12.78;82.95
64211;BME280;50528;48.514;14.394;2022-09-09T06:16:56;93745.55;;;12.85;83.43
64211;BME280;50528;48.514;14.394;2022-09-09T06:17:59;93738.28;;;12.91;83.25
64211;BME280;50528;48.514;14.394;2022-09-09T06:19:02;93738.39;;;12.99;82.06
64211;BME280;50528;48.514;14.394;2022-09-09T06:20:06;93734.80;;;13.07;82.74